sensor_id;sensor_type;location;lat;lon;timestamp;pressure;altitude;pressure_sealevel;temperature;humidity
41886;BME280;27567;43.084;25.616;2023-04-22T00:01:20;97898.97;;;8.19;100.00
41886;BME280;27567;43.084;25.616;2023-04-22T00:04:04;97903.69;;;8.17;100.00
41886;BME280;27567;43.084;25.616;2023-04-22T00:06:48;97901.88;;;8.24;100.00
41886;BME280;27567;43.084;25.616;2023-04-22T00:09:32;97908.84;;;8.18;100.00
41886;BME280;27567;43.084;25.616;2023-04-22T00:12:16;97903.91;;;8.22;100.00
41886;BME280;27567;43.084;25.616;2023-04-22T00:15:01;97902.94;;;8.30;100.00
41886;BME280;27567;43.084;25.616;2023-04-22T00:17:45;97904.94;;;8.21;100.00
41886;BME280;27567;43.084;25.616;2023-04-22T00:20:29;97900.59;;;8.13;100.00
41886;BME280;27567;43.084;25.616;2023-04-22T00:23:15;97900.28;;;8.36;100.00
41886;BME280;27567;43.084;25.616;2023-04-22T00:25:59;97897.56;;;8.23;100.00
41886;BME280;27567;43.084;25.616;2023-04-22T00:28:44;97896.69;;;8.16;100.00
41886;BME280;27567;43.084;25.616;2023-04-22T00:31:28;97895.66;;;8.17;100.00
41886;BME280;27567;43.084;25.616;2023-04-22T00:34:12;97903.44;;;8.11;100.00
41886;BME280;27567;43.084;25.616;2023-04-22T00:36:56;97905.44;;;8.03;100.00
41886;BME280;27567;43.084;25.616;2023-04-22T00:39:40;97898.91;;;8.05;100.00
41886;BME280;27567;43.084;25.616;2023-04-22T00:42:24;97902.44;;;8.19;100.00
41886;BME280;27567;43.084;25.616;2023-04-22T00:45:11;97893.78;;;8.10;100.00
41886;BME280;27567;43.084;25.616;2023-04-22T00:47:55;97892.53;;;8.06;100.00
41886;BME280;27567;43.084;25.616;2023-04-22T00:50:39;97902.22;;;8.14;100.00
41886;BME280;27567;43.084;25.616;2023-04-22T00:53:23;97899.84;;;8.26;100.00
41886;BME280;27567;43.084;25.616;2023-04-22T00:56:07;97894.88;;;8.23;100.00
41886;BME280;27567;43.084;25.616;2023-04-22T00:58:53;97896.34;;;8.32;100.00
41886;BME280;27567;43.084;25.616;2023-04-22T01:01:37;97895.56;;;8.38;100.00
41886;BME280;27567;43.084;25.616;2023-04-22T01:04:22;97895.16;;;8.35;100.00
41886;BME280;27567;43.084;25.616;2023-04-22T01:07:06;97893.91;;;8.37;100.00
41886;BME280;27567;43.084;25.616;2023-04-22T01:09:51;97897.81;;;8.35;100.00
41886;BME280;27567;43.084;25.616;2023-04-22T01:12:35;97891.38;;;8.22;100.00
41886;BME280;27567;43.084;25.616;2023-04-22T01:15:19;97908.34;;;8.08;100.00
41886;BME280;27567;43.084;25.616;2023-04-22T01:18:03;97909.41;;;8.13;100.00
41886;BME280;27567;43.084;25.616;2023-04-22T01:20:48;97909.34;;;8.00;100.00
41886;BME280;27567;43.084;25.616;2023-04-22T01:23:32;97908.69;;;7.98;100.00
41886;BME280;27567;43.084;25.616;2023-04-22T01:26:16;97906.69;;;8.07;100.00
41886;BME280;27567;43.084;25.616;2023-04-22T01:29:01;97894.16;;;8.07;100.00
41886;BME280;27567;43.084;25.616;2023-04-22T01:31:45;97909.09;;;7.95;100.00
41886;BME280;27567;43.084;25.616;2023-04-22T01:34:30;97904.78;;;7.94;100.00
41886;BME280;27567;43.084;25.616;2023-04-22T01:37:14;97896.25;;;8.12;100.00
41886;BME280;27567;43.084;25.616;2023-04-22T01:39:59;97894.63;;;8.11;100.00
41886;BME280;27567;43.084;25.616;2023-04-22T01:42:43;97896.81;;;8.07;100.00
41886;BME280;27567;43.084;25.616;2023-04-22T01:45:27;97900.97;;;8.10;100.00
41886;BME280;27567;43.084;25.616;2023-04-22T01:48:12;97901.75;;;8.04;100.00
41886;BME280;27567;43.084;25.616;2023-04-22T01:50:56;97897.75;;;7.86;100.00
41886;BME280;27567;43.084;25.616;2023-04-22T01:53:40;97894.81;;;7.81;100.00
41886;BME280;27567;43.084;25.616;2023-04-22T01:56:24;97886.63;;;7.82;100.00
41886;BME280;27567;43.084;25.616;2023-04-22T01:59:08;97885.91;;;7.67;100.00
41886;BME280;27567;43.084;25.616;2023-04-22T02:01:52;97893.81;;;7.54;100.00
41886;BME280;27567;43.084;25.616;2023-04-22T02:04:36;97893.84;;;7.60;100.00
41886;BME280;27567;43.084;25.616;2023-04-22T02:07:20;97888.13;;;7.63;100.00
41886;BME280;27567;43.084;25.616;2023-04-22T02:10:05;97883.69;;;7.49;100.00
41886;BME280;27567;43.084;25.616;2023-04-22T02:12:49;97871.84;;;7.51;100.00
41886;BME280;27567;43.084;25.616;2023-04-22T02:15:33;97886.66;;;7.61;100.00
41886;BME280;27567;43.084;25.616;2023-04-22T02:18:18;97883.69;;;7.49;100.00
41886;BME280;27567;43.084;25.616;2023-04-22T02:21:02;97893.13;;;7.45;100.00
41886;BME280;27567;43.084;25.616;2023-04-22T02:23:47;97888.09;;;7.35;100.00
41886;BME280;27567;43.084;25.616;2023-04-22T02:26:30;97892.66;;;7.41;100.00
41886;BME280;27567;43.084;25.616;2023-04-22T02:29:15;97897.69;;;7.29;100.00
41886;BME280;27567;43.084;25.616;2023-04-22T02:31:59;97894.84;;;7.09;100.00
41886;BME280;27567;43.084;25.616;2023-04-22T02:34:43;97891.47;;;6.64;100.00
41886;BME280;27567;43.084;25.616;2023-04-22T02:37:27;97894.72;;;6.44;100.00
41886;BME280;27567;43.084;25.616;2023-04-22T02:40:11;97888.53;;;6.37;100.00
41886;BME280;27567;43.084;25.616;2023-04-22T02:42:55;97893.78;;;6.52;100.00
41886;BME280;27567;43.084;25.616;2023-04-22T02:45:39;97895.94;;;6.56;100.00
41886;BME280;27567;43.084;25.616;2023-04-22T02:48:23;97890.69;;;6.48;100.00
41886;BME280;27567;43.084;25.616;2023-04-22T02:51:07;97896.81;;;6.64;100.00
41886;BME280;27567;43.084;25.616;2023-04-22T02:53:52;97893.59;;;6.68;100.00
41886;BME280;27567;43.084;25.616;2023-04-22T02:56:35;97893.97;;;6.65;100.00
41886;BME280;27567;43.084;25.616;2023-04-22T02:59:19;97894.38;;;6.47;100.00
41886;BME280;27567;43.084;25.616;2023-04-22T03:02:03;97905.09;;;6.54;100.00
41886;BME280;27567;43.084;25.616;2023-04-22T03:04:47;97910.69;;;6.59;100.00
41886;BME280;27567;43.084;25.616;2023-04-22T03:07:31;97912.06;;;6.55;100.00
41886;BME280;27567;43.084;25.616;2023-04-22T03:10:15;97918.22;;;6.70;100.00
41886;BME280;27567;43.084;25.616;2023-04-22T03:12:59;97916.06;;;6.81;100.00
41886;BME280;27567;43.084;25.616;2023-04-22T03:15:43;97917.28;;;6.78;100.00
41886;BME280;27567;43.084;25.616;2023-04-22T03:18:27;97917.88;;;6.95;100.00
41886;BME280;27567;43.084;25.616;2023-04-22T03:21:11;97916.31;;;7.22;100.00
41886;BME280;27567;43.084;25.616;2023-04-22T03:23:55;97918.75;;;7.24;100.00
41886;BME280;27567;43.084;25.616;2023-04-22T03:26:39;97921.75;;;7.14;100.00
41886;BME280;27567;43.084;25.616;2023-04-22T03:29:23;97922.16;;;7.33;100.00
41886;BME280;27567;43.084;25.616;2023-04-22T03:32:07;97930.31;;;7.31;100.00
41886;BME280;27567;43.084;25.616;2023-04-22T03:34:51;97931.81;;;7.34;100.00
41886;BME280;27567;43.084;25.616;2023-04-22T03:37:35;97935.53;;;7.40;100.00
41886;BME280;27567;43.084;25.616;2023-04-22T03:40:19;97935.84;;;7.51;100.00
41886;BME280;27567;43.084;25.616;2023-04-22T03:43:03;97939.41;;;7.37;100.00
41886;BME280;27567;43.084;25.616;2023-04-22T03:45:50;97950.66;;;7.32;100.00
41886;BME280;27567;43.084;25.616;2023-04-22T03:48:34;97942.66;;;7.32;100.00
41886;BME280;27567;43.084;25.616;2023-04-22T03:51:18;97949.41;;;7.13;100.00
41886;BME280;27567;43.084;25.616;2023-04-22T03:54:02;97954.09;;;7.11;100.00
41886;BME280;27567;43.084;25.616;2023-04-22T03:56:46;97961.44;;;7.24;100.00
41886;BME280;27567;43.084;25.616;2023-04-22T03:59:30;97963.97;;;7.54;100.00
41886;BME280;27567;43.084;25.616;2023-04-22T04:02:14;97964.63;;;7.34;100.00
41886;BME280;27567;43.084;25.616;2023-04-22T04:04:58;97962.00;;;7.41;100.00
41886;BME280;27567;43.084;25.616;2023-04-22T04:07:42;97966.00;;;7.52;100.00
41886;BME280;27567;43.084;25.616;2023-04-22T04:10:26;97962.75;;;7.35;100.00
41886;BME280;27567;43.084;25.616;2023-04-22T04:13:10;97959.66;;;7.31;100.00
41886;BME280;27567;43.084;25.616;2023-04-22T04:15:54;97971.50;;;7.44;100.00
41886;BME280;27567;43.084;25.616;2023-04-22T04:18:38;97976.19;;;7.63;100.00
41886;BME280;27567;43.084;25.616;2023-04-22T04:21:22;97980.50;;;7.64;100.00
41886;BME280;27567;43.084;25.616;2023-04-22T04:24:06;97988.84;;;7.55;100.00
41886;BME280;27567;43.084;25.616;2023-04-22T04:26:50;97989.00;;;7.75;100.00
41886;BME280;27567;43.084;25.616;2023-04-22T04:29:34;97991.72;;;7.60;100.00
41886;BME280;27567;43.084;25.616;2023-04-22T04:32:19;97989.38;;;7.72;100.00
41886;BME280;27567;43.084;25.616;2023-04-22T04:35:04;97991.53;;;7.83;100.00
41886;BME280;27567;43.084;25.616;2023-04-22T04:37:49;98000.59;;;7.89;100.00
41886;BME280;27567;43.084;25.616;2023-04-22T04:40:33;98001.69;;;7.73;100.00
41886;BME280;27567;43.084;25.616;2023-04-22T04:43:19;98001.25;;;7.69;100.00
41886;BME280;27567;43.084;25.616;2023-04-22T04:46:03;98007.84;;;7.95;100.00
41886;BME280;27567;43.084;25.616;2023-04-22T04:48:47;97996.16;;;7.96;100.00
41886;BME280;27567;43.084;25.616;2023-04-22T04:51:33;98004.69;;;7.85;100.00
41886;BME280;27567;43.084;25.616;2023-04-22T04:54:17;98008.84;;;8.16;100.00
41886;BME280;27567;43.084;25.616;2023-04-22T04:57:01;98014.47;;;8.27;100.00
41886;BME280;27567;43.084;25.616;2023-04-22T04:59:45;98014.81;;;8.18;100.00
41886;BME280;27567;43.084;25.616;2023-04-22T05:02:29;98010.75;;;8.50;100.00
41886;BME280;27567;43.084;25.616;2023-04-22T05:05:13;97998.56;;;8.83;100.00
41886;BME280;27567;43.084;25.616;2023-04-22T05:07:57;97999.53;;;9.10;100.00
41886;BME280;27567;43.084;25.616;2023-04-22T05:10:41;98006.44;;;8.98;100.00
41886;BME280;27567;43.084;25.616;2023-04-22T05:13:25;98006.47;;;9.05;100.00
41886;BME280;27567;43.084;25.616;2023-04-22T05:16:10;98006.94;;;9.15;100.00
41886;BME280;27567;43.084;25.616;2023-04-22T05:18:54;98009.53;;;8.95;100.00
41886;BME280;27567;43.084;25.616;2023-04-22T05:21:38;98001.81;;;9.20;100.00
41886;BME280;27567;43.084;25.616;2023-04-22T05:24:23;98008.97;;;9.06;100.00
41886;BME280;27567;43.084;25.616;2023-04-22T05:27:07;98017.28;;;8.83;100.00
41886;BME280;27567;43.084;25.616;2023-04-22T05:29:51;98015.72;;;9.02;100.00
41886;BME280;27567;43.084;25.616;2023-04-22T05:32:35;98014.78;;;9.23;100.00
41886;BME280;27567;43.084;25.616;2023-04-22T05:35:19;98019.03;;;9.04;100.00
41886;BME280;27567;43.084;25.616;2023-04-22T05:38:03;98010.59;;;9.00;100.00
41886;BME280;27567;43.084;25.616;2023-04-22T05:40:47;98014.66;;;8.90;100.00
41886;BME280;27567;43.084;25.616;2023-04-22T05:43:32;98006.94;;;9.15;100.00
41886;BME280;27567;43.084;25.616;2023-04-22T05:46:16;98013.72;;;9.17;100.00
41886;BME280;27567;43.084;25.616;2023-04-22T05:49:00;98014.41;;;9.33;100.00
41886;BME280;27567;43.084;25.616;2023-04-22T05:51:44;98018.19;;;9.59;100.00
41886;BME280;27567;43.084;25.616;2023-04-22T05:54:28;98034.91;;;9.95;100.00
41886;BME280;27567;43.084;25.616;2023-04-22T05:57:13;98031.16;;;9.69;100.00
41886;BME280;27567;43.084;25.616;2023-04-22T05:59:58;98040.22;;;9.74;100.00
41886;BME280;27567;43.084;25.616;2023-04-22T06:02:42;98033.00;;;9.61;100.00
41886;BME280;27567;43.084;25.616;2023-04-22T06:05:26;98039.00;;;9.97;100.00
41886;BME280;27567;43.084;25.616;2023-04-22T06:08:11;98051.78;;;10.02;100.00
41886;BME280;27567;43.084;25.616;2023-04-22T06:10:55;98057.97;;;10.29;100.00
41886;BME280;27567;43.084;25.616;2023-04-22T06:13:39;98046.44;;;10.29;100.00
41886;BME280;27567;43.084;25.616;2023-04-22T06:16:23;98054.06;;;10.18;100.00
41886;BME280;27567;43.084;25.616;2023-04-22T06:19:07;98052.63;;;10.43;100.00
41886;BME280;27567;43.084;25.616;2023-04-22T06:21:51;98060.88;;;10.55;100.00
41886;BME280;27567;43.084;25.616;2023-04-22T06:24:36;98068.47;;;10.64;100.00
41886;BME280;27567;43.084;25.616;2023-04-22T06:27:20;98073.41;;;10.88;100.00
41886;BME280;27567;43.084;25.616;2023-04-22T06:30:04;98072.78;;;10.86;100.00
41886;BME280;27567;43.084;25.616;2023-04-22T06:32:50;98083.31;;;10.80;100.00
41886;BME280;27567;43.084;25.616;2023-04-22T06:35:34;98074.22;;;10.88;100.00
41886;BME280;27567;43.084;25.616;2023-04-22T06:38:19;98082.69;;;10.78;100.00
41886;BME280;27567;43.084;25.616;2023-04-22T06:41:03;98083.31;;;10.80;100.00
41886;BME280;27567;43.084;25.616;2023-04-22T06:43:47;98092.59;;;10.64;100.00
41886;BME280;27567;43.084;25.616;2023-04-22T06:46:32;98080.44;;;10.68;100.00
41886;BME280;27567;43.084;25.616;2023-04-22T06:49:16;98094.28;;;10.59;100.00
41886;BME280;27567;43.084;25.616;2023-04-22T06:52:00;98091.97;;;10.82;100.00
41886;BME280;27567;43.084;25.616;2023-04-22T06:54:44;98095.63;;;11.08;100.00
41886;BME280;27567;43.084;25.616;2023-04-22T06:57:29;98093.69;;;11.29;100.00
41886;BME280;27567;43.084;25.616;2023-04-22T07:00:13;98102.22;;;11.12;100.00
41886;BME280;27567;43.084;25.616;2023-04-22T07:02:57;98091.88;;;11.16;100.00
41886;BME280;27567;43.084;25.616;2023-04-22T07:05:41;98097.28;;;11.09;100.00
41886;BME280;27567;43.084;25.616;2023-04-22T07:08:25;98099.13;;;11.16;100.00
41886;BME280;27567;43.084;25.616;2023-04-22T07:11:09;98108.84;;;11.03;100.00
41886;BME280;27567;43.084;25.616;2023-04-22T07:13:53;98103.28;;;10.98;100.00
41886;BME280;27567;43.084;25.616;2023-04-22T07:16:37;98100.63;;;10.85;100.00
41886;BME280;27567;43.084;25.616;2023-04-22T07:19:21;98106.56;;;11.00;100.00
41886;BME280;27567;43.084;25.616;2023-04-22T07:22:05;98102.56;;;11.36;100.00
41886;BME280;27567;43.084;25.616;2023-04-22T07:24:49;98112.47;;;11.29;100.00
41886;BME280;27567;43.084;25.616;2023-04-22T07:27:34;98108.16;;;11.28;100.00
41886;BME280;27567;43.084;25.616;2023-04-22T07:30:21;98113.91;;;11.38;100.00
41886;BME280;27567;43.084;25.616;2023-04-22T07:33:05;98112.44;;;11.81;100.00
41886;BME280;27567;43.084;25.616;2023-04-22T07:35:49;98126.09;;;11.80;100.00
41886;BME280;27567;43.084;25.616;2023-04-22T07:38:33;98128.88;;;12.05;100.00
41886;BME280;27567;43.084;25.616;2023-04-22T07:41:18;98130.50;;;12.13;100.00
41886;BME280;27567;43.084;25.616;2023-04-22T07:44:02;98124.66;;;12.16;100.00
41886;BME280;27567;43.084;25.616;2023-04-22T07:46:46;98136.06;;;12.69;100.00
41886;BME280;27567;43.084;25.616;2023-04-22T07:49:30;98137.16;;;12.86;100.00
41886;BME280;27567;43.084;25.616;2023-04-22T07:52:14;98138.47;;;12.77;100.00
41886;BME280;27567;43.084;25.616;2023-04-22T07:54:58;98142.31;;;12.88;100.00
41886;BME280;27567;43.084;25.616;2023-04-22T07:57:42;98140.19;;;12.71;100.00
41886;BME280;27567;43.084;25.616;2023-04-22T08:00:26;98134.50;;;12.29;100.00
41886;BME280;27567;43.084;25.616;2023-04-22T08:03:09;98150.31;;;12.44;100.00
41886;BME280;27567;43.084;25.616;2023-04-22T08:05:54;98142.88;;;12.71;100.00
41886;BME280;27567;43.084;25.616;2023-04-22T08:08:40;98137.09;;;12.68;100.00
41886;BME280;27567;43.084;25.616;2023-04-22T08:11:25;98144.81;;;12.64;100.00
41886;BME280;27567;43.084;25.616;2023-04-22T08:14:09;98144.78;;;12.89;100.00
41886;BME280;27567;43.084;25.616;2023-04-22T08:16:53;98150.13;;;13.15;100.00
41886;BME280;27567;43.084;25.616;2023-04-22T08:19:37;98163.16;;;13.18;100.00
41886;BME280;27567;43.084;25.616;2023-04-22T08:22:21;98161.16;;;12.88;100.00
41886;BME280;27567;43.084;25.616;2023-04-22T08:25:06;98161.50;;;13.35;100.00
41886;BME280;27567;43.084;25.616;2023-04-22T08:27:52;98156.50;;;13.39;100.00
41886;BME280;27567;43.084;25.616;2023-04-22T08:30:36;98167.91;;;13.60;100.00
41886;BME280;27567;43.084;25.616;2023-04-22T08:33:19;98161.53;;;13.54;100.00
41886;BME280;27567;43.084;25.616;2023-04-22T08:36:03;98155.59;;;13.64;100.00
41886;BME280;27567;43.084;25.616;2023-04-22T08:38:48;98149.06;;;13.60;100.00
41886;BME280;27567;43.084;25.616;2023-04-22T08:41:33;98156.13;;;13.91;100.00
41886;BME280;27567;43.084;25.616;2023-04-22T08:44:18;98147.88;;;14.17;100.00
41886;BME280;27567;43.084;25.616;2023-04-22T08:47:03;98152.00;;;14.19;100.00
41886;BME280;27567;43.084;25.616;2023-04-22T08:49:50;98153.06;;;14.72;100.00
41886;BME280;27567;43.084;25.616;2023-04-22T08:52:34;98154.97;;;14.41;100.00
41886;BME280;27567;43.084;25.616;2023-04-22T08:55:18;98154.41;;;14.51;100.00
41886;BME280;27567;43.084;25.616;2023-04-22T08:58:03;98146.75;;;14.36;100.00
41886;BME280;27567;43.084;25.616;2023-04-22T09:00:49;98156.50;;;14.80;100.00
41886;BME280;27567;43.084;25.616;2023-04-22T09:03:38;98163.63;;;15.33;100.00
41886;BME280;27567;43.084;25.616;2023-04-22T09:06:23;98152.81;;;15.33;100.00
41886;BME280;27567;43.084;25.616;2023-04-22T09:09:07;98161.06;;;15.27;100.00
41886;BME280;27567;43.084;25.616;2023-04-22T09:11:52;98164.22;;;15.88;100.00
41886;BME280;27567;43.084;25.616;2023-04-22T09:14:36;98159.09;;;16.04;100.00
41886;BME280;27567;43.084;25.616;2023-04-22T09:17:32;98158.72;;;16.58;100.00
41886;BME280;27567;43.084;25.616;2023-04-22T09:20:16;98160.69;;;16.80;100.00
41886;BME280;27567;43.084;25.616;2023-04-22T09:23:03;98148.53;;;16.65;100.00
41886;BME280;27567;43.084;25.616;2023-04-22T09:25:50;98160.28;;;17.05;100.00
41886;BME280;27567;43.084;25.616;2023-04-22T09:28:35;98159.56;;;18.21;100.00
41886;BME280;27567;43.084;25.616;2023-04-22T09:31:21;98158.50;;;18.50;100.00
41886;BME280;27567;43.084;25.616;2023-04-22T09:34:05;98158.97;;;18.74;100.00
41886;BME280;27567;43.084;25.616;2023-04-22T09:36:50;98153.47;;;18.69;100.00
41886;BME280;27567;43.084;25.616;2023-04-22T09:39:34;98155.53;;;18.24;100.00
41886;BME280;27567;43.084;25.616;2023-04-22T09:42:20;98153.81;;;17.90;100.00
41886;BME280;27567;43.084;25.616;2023-04-22T09:45:05;98156.53;;;17.68;100.00
41886;BME280;27567;43.084;25.616;2023-04-22T09:47:53;98160.47;;;17.38;100.00
41886;BME280;27567;43.084;25.616;2023-04-22T09:50:42;98165.56;;;17.34;100.00
41886;BME280;27567;43.084;25.616;2023-04-22T09:53:27;98157.19;;;16.96;100.00
41886;BME280;27567;43.084;25.616;2023-04-22T09:56:11;98148.41;;;16.72;100.00
41886;BME280;27567;43.084;25.616;2023-04-22T09:58:55;98146.16;;;17.20;100.00
41886;BME280;27567;43.084;25.616;2023-04-22T10:01:41;98145.47;;;17.75;100.00
41886;BME280;27567;43.084;25.616;2023-04-22T10:04:25;98133.94;;;17.40;100.00
41886;BME280;27567;43.084;25.616;2023-04-22T10:07:09;98132.75;;;17.75;100.00
41886;BME280;27567;43.084;25.616;2023-04-22T10:09:54;98130.50;;;17.94;100.00
41886;BME280;27567;43.084;25.616;2023-04-22T10:12:38;98132.22;;;19.41;100.00
41886;BME280;27567;43.084;25.616;2023-04-22T10:15:24;98128.94;;;19.29;100.00
41886;BME280;27567;43.084;25.616;2023-04-22T10:18:17;98116.16;;;18.86;100.00
41886;BME280;27567;43.084;25.616;2023-04-22T10:21:03;98119.06;;;18.80;100.00
41886;BME280;27567;43.084;25.616;2023-04-22T10:23:48;98122.81;;;19.59;100.00
41886;BME280;27567;43.084;25.616;2023-04-22T10:26:47;98119.31;;;19.74;100.00
41886;BME280;27567;43.084;25.616;2023-04-22T10:29:37;98108.97;;;19.66;100.00
41886;BME280;27567;43.084;25.616;2023-04-22T10:35:08;98111.03;;;20.48;100.00
41886;BME280;27567;43.084;25.616;2023-04-22T10:37:53;98108.06;;;22.62;88.11
41886;BME280;27567;43.084;25.616;2023-04-22T10:40:57;98101.28;;;23.14;84.28
41886;BME280;27567;43.084;25.616;2023-04-22T10:43:44;98093.44;;;23.75;74.35
41886;BME280;27567;43.084;25.616;2023-04-22T10:49:20;98084.75;;;25.24;63.21
41886;BME280;27567;43.084;25.616;2023-04-22T10:52:05;98084.00;;;27.42;46.42
41886;BME280;27567;43.084;25.616;2023-04-22T10:57:38;98096.28;;;22.91;71.66
41886;BME280;27567;43.084;25.616;2023-04-22T11:00:28;98101.31;;;24.00;69.48
41886;BME280;27567;43.084;25.616;2023-04-22T11:03:15;98105.88;;;23.86;71.93
41886;BME280;27567;43.084;25.616;2023-04-22T11:06:13;98100.75;;;23.11;74.70
41886;BME280;27567;43.084;25.616;2023-04-22T11:09:09;98111.56;;;20.71;100.00
41886;BME280;27567;43.084;25.616;2023-04-22T11:15:18;98117.94;;;18.05;100.00
41886;BME280;27567;43.084;25.616;2023-04-22T11:18:07;98128.28;;;17.64;100.00
41886;BME280;27567;43.084;25.616;2023-04-22T11:20:53;98120.16;;;17.02;100.00
41886;BME280;27567;43.084;25.616;2023-04-22T11:23:51;98120.06;;;17.14;100.00
41886;BME280;27567;43.084;25.616;2023-04-22T11:26:36;98119.72;;;16.08;100.00
41886;BME280;27567;43.084;25.616;2023-04-22T11:29:20;98114.28;;;15.79;100.00
41886;BME280;27567;43.084;25.616;2023-04-22T11:32:05;98123.03;;;14.93;100.00
41886;BME280;27567;43.084;25.616;2023-04-22T11:34:50;98135.88;;;14.43;100.00
41886;BME280;27567;43.084;25.616;2023-04-22T11:37:48;98141.19;;;14.07;100.00
41886;BME280;27567;43.084;25.616;2023-04-22T11:40:34;98153.00;;;14.06;100.00
41886;BME280;27567;43.084;25.616;2023-04-22T11:43:20;98159.00;;;13.41;100.00
41886;BME280;27567;43.084;25.616;2023-04-22T11:46:05;98154.38;;;13.48;100.00
41886;BME280;27567;43.084;25.616;2023-04-22T11:48:50;98157.25;;;13.65;100.00
41886;BME280;27567;43.084;25.616;2023-04-22T11:51:35;98158.13;;;13.40;100.00
41886;BME280;27567;43.084;25.616;2023-04-22T11:54:32;98148.03;;;13.73;100.00
41886;BME280;27567;43.084;25.616;2023-04-22T11:57:20;98146.13;;;13.43;100.00
41886;BME280;27567;43.084;25.616;2023-04-22T12:00:05;98156.03;;;13.98;100.00
41886;BME280;27567;43.084;25.616;2023-04-22T12:02:55;98150.25;;;14.25;100.00
41886;BME280;27567;43.084;25.616;2023-04-22T12:05:50;98162.31;;;14.22;100.00
41886;BME280;27567;43.084;25.616;2023-04-22T12:08:36;98143.28;;;14.48;100.00
41886;BME280;27567;43.084;25.616;2023-04-22T12:11:22;98142.75;;;14.93;100.00
41886;BME280;27567;43.084;25.616;2023-04-22T12:14:07;98135.38;;;14.88;100.00
41886;BME280;27567;43.084;25.616;2023-04-22T12:16:51;98136.88;;;15.08;100.00
41886;BME280;27567;43.084;25.616;2023-04-22T12:19:36;98143.28;;;15.43;100.00
41886;BME280;27567;43.084;25.616;2023-04-22T12:22:28;98134.22;;;15.61;100.00
41886;BME280;27567;43.084;25.616;2023-04-22T12:25:17;98141.97;;;15.57;100.00
41886;BME280;27567;43.084;25.616;2023-04-22T12:28:02;98140.56;;;15.55;100.00
41886;BME280;27567;43.084;25.616;2023-04-22T12:30:47;98133.88;;;15.45;100.00
41886;BME280;27567;43.084;25.616;2023-04-22T12:33:32;98128.84;;;15.90;100.00
41886;BME280;27567;43.084;25.616;2023-04-22T12:36:16;98129.63;;;15.61;100.00
41886;BME280;27567;43.084;25.616;2023-04-22T12:39:01;98133.44;;;15.77;100.00
41886;BME280;27567;43.084;25.616;2023-04-22T12:41:45;98131.84;;;16.05;100.00
41886;BME280;27567;43.084;25.616;2023-04-22T12:44:34;98128.78;;;16.02;100.00
41886;BME280;27567;43.084;25.616;2023-04-22T12:47:19;98119.13;;;15.89;100.00
41886;BME280;27567;43.084;25.616;2023-04-22T12:50:04;98120.19;;;16.51;100.00
41886;BME280;27567;43.084;25.616;2023-04-22T12:52:49;98112.88;;;16.51;100.00
41886;BME280;27567;43.084;25.616;2023-04-22T12:55:34;98121.00;;;17.03;100.00
41886;BME280;27567;43.084;25.616;2023-04-22T12:58:18;98117.69;;;16.15;100.00
41886;BME280;27567;43.084;25.616;2023-04-22T13:01:03;98102.78;;;16.30;100.00
41886;BME280;27567;43.084;25.616;2023-04-22T13:03:47;98107.97;;;16.48;100.00
41886;BME280;27567;43.084;25.616;2023-04-22T13:06:35;98106.34;;;17.21;100.00
41886;BME280;27567;43.084;25.616;2023-04-22T13:09:21;98099.16;;;16.92;100.00
41886;BME280;27567;43.084;25.616;2023-04-22T13:12:06;98103.00;;;17.36;100.00
41886;BME280;27567;43.084;25.616;2023-04-22T13:14:50;98101.06;;;17.09;100.00
41886;BME280;27567;43.084;25.616;2023-04-22T13:17:35;98095.25;;;16.83;100.00
41886;BME280;27567;43.084;25.616;2023-04-22T13:20:20;98078.78;;;16.33;100.00
41886;BME280;27567;43.084;25.616;2023-04-22T13:23:04;98087.16;;;16.88;100.00
41886;BME280;27567;43.084;25.616;2023-04-22T13:25:48;98079.50;;;16.80;100.00
41886;BME280;27567;43.084;25.616;2023-04-22T13:28:33;98077.69;;;17.75;100.00
41886;BME280;27567;43.084;25.616;2023-04-22T13:31:17;98077.88;;;18.50;100.00
41886;BME280;27567;43.084;25.616;2023-04-22T13:34:01;98072.66;;;18.43;100.00
41886;BME280;27567;43.084;25.616;2023-04-22T13:36:45;98077.44;;;18.63;100.00
41886;BME280;27567;43.084;25.616;2023-04-22T13:39:30;98077.56;;;18.84;94.72
41886;BME280;27567;43.084;25.616;2023-04-22T13:42:14;98076.69;;;19.90;85.38
41886;BME280;27567;43.084;25.616;2023-04-22T13:44:59;98075.09;;;20.05;81.85
41886;BME280;27567;43.084;25.616;2023-04-22T13:47:43;98086.81;;;18.83;92.98
41886;BME280;27567;43.084;25.616;2023-04-22T13:50:27;98076.47;;;19.23;92.29
41886;BME280;27567;43.084;25.616;2023-04-22T13:53:11;98087.22;;;19.07;99.00
41886;BME280;27567;43.084;25.616;2023-04-22T13:55:57;98081.59;;;19.88;88.84
41886;BME280;27567;43.084;25.616;2023-04-22T13:58:42;98088.13;;;19.23;93.85
41886;BME280;27567;43.084;25.616;2023-04-22T14:01:26;98087.59;;;18.84;94.27
41886;BME280;27567;43.084;25.616;2023-04-22T14:04:10;98082.50;;;18.92;86.70
41886;BME280;27567;43.084;25.616;2023-04-22T14:06:54;98089.59;;;19.42;84.63
41886;BME280;27567;43.084;25.616;2023-04-22T14:09:39;98088.16;;;20.13;76.97
41886;BME280;27567;43.084;25.616;2023-04-22T14:12:22;98093.50;;;19.72;77.60
41886;BME280;27567;43.084;25.616;2023-04-22T14:15:07;98099.19;;;18.36;71.63
41886;BME280;27567;43.084;25.616;2023-04-22T14:17:53;98092.22;;;18.45;59.42
41886;BME280;27567;43.084;25.616;2023-04-22T14:20:37;98099.44;;;19.63;57.33
41886;BME280;27567;43.084;25.616;2023-04-22T14:23:21;98094.97;;;20.16;53.27
41886;BME280;27567;43.084;25.616;2023-04-22T14:26:08;98093.25;;;21.28;50.71
41886;BME280;27567;43.084;25.616;2023-04-22T14:28:53;98088.97;;;20.70;44.28